Time;durP1;ratioP1;P1;durP2;ratioP2;P2;SDS_P1;SDS_P2;PMS_P1;PMS_P2;Temp;Humidity;BMP_temperature;BMP_pressure;BME280_temperature;BME280_humidity;BME280_pressure;Samples;Min_cycle;Max_cycle;Signal;HPM_P1;HPM_P2
2021/11/16 08:36:55;;;;;;;46.07;19.03;;;17.70;87.40;;;;;;4228416;27;20611;-69
2021/11/16 08:39:23;;;;;;;44.20;19.02;;;17.80;88.20;;;;;;4197705;27;80016;-63
2021/11/16 08:47:11;;;;;;;58.80;28.27;;;17.90;81.20;;;;;;4245374;27;20301;-61
2021/11/16 08:49:40;;;;;;;54.92;27.60;;;17.70;77.70;;;;;;4216202;27;20528;-59
2021/11/16 08:52:14;;;;;;;58.33;27.40;;;17.50;77.60;;;;;;4205492;28;20148;-61
2021/11/16 08:54:36;;;;;;;62.55;28.33;;;17.30;77.90;;;;;;4195496;28;20107;-59
2021/11/16 08:57:00;;;;;;;57.33;27.70;;;17.10;78.50;;;;;;4206297;28;20044;-59
2021/11/16 08:59:23;;;;;;;55.97;27.13;;;16.90;79.00;;;;;;4204701;28;20048;-60
2021/11/16 09:01:54;;;;;;;58.97;27.13;;;16.80;79.60;;;;;;4189416;28;20047;-60
2021/11/16 09:04:26;;;;;;;63.42;28.52;;;16.60;79.70;;;;;;4192799;28;20059;-60
2021/11/16 09:06:48;;;;;;;57.25;26.10;;;16.50;79.90;;;;;;4206222;28;20048;-60
2021/11/16 09:09:14;;;;;;;61.08;28.50;;;16.40;80.90;;;;;;4191761;28;20057;-60
2021/11/16 09:11:36;;;;;;;56.03;26.67;;;16.30;81.10;;;;;;4174192;28;20464;-59
2021/11/16 09:13:58;;;;;;;58.38;27.27;;;16.20;81.40;;;;;;4173105;28;20132;-59
2021/11/16 09:16:22;;;;;;;57.13;27.63;;;16.10;81.80;;;;;;4172803;28;20095;-59
2021/11/16 09:18:47;;;;;;;59.33;28.77;;;16.10;81.90;;;;;;4189274;28;20393;-59
2021/11/16 09:21:14;;;;;;;64.82;28.17;;;16.00;82.40;;;;;;4194413;28;20056;-59
2021/11/16 09:23:39;;;;;;;66.10;28.85;;;15.90;82.70;;;;;;4194112;28;20052;-59
2021/11/16 09:26:15;;;;;;;66.97;30.10;;;15.90;83.00;;;;;;4189001;28;20118;-59
2021/11/16 09:28:44;;;;;;;63.25;29.05;;;15.80;82.80;;;;;;4188492;28;20127;-59
2021/11/16 09:31:26;;;;;;;65.45;28.95;;;15.80;83.40;;;;;;4192865;28;20106;-59
2021/11/16 09:33:48;;;;;;;59.05;26.45;;;15.70;83.00;;;;;;4199560;28;20412;-59
2021/11/16 09:36:21;;;;;;;61.67;28.20;;;15.70;83.90;;;;;;4188739;28;20404;-60
2021/11/16 09:38:46;;;;;;;60.72;27.95;;;15.60;83.30;;;;;;4187895;28;20048;-59
2021/11/16 09:41:09;;;;;;;58.25;27.15;;;15.60;83.80;;;;;;4192904;28;20384;-59
2021/11/16 09:43:31;;;;;;;61.88;26.90;;;15.50;83.70;;;;;;4205479;28;20048;-59
2021/11/16 09:45:53;;;;;;;60.67;26.42;;;15.50;83.90;;;;;;4203780;28;20044;-58
2021/11/16 09:48:22;;;;;;;56.05;26.13;;;15.50;84.00;;;;;;4203598;28;20118;-58
2021/11/16 09:50:45;;;;;;;63.22;25.65;;;15.40;83.80;;;;;;4204123;28;20076;-58
2021/11/16 09:53:16;;;;;;;53.63;25.00;;;15.40;84.80;;;;;;4189628;28;20049;-58
2021/11/16 09:55:38;;;;;;;54.40;24.95;;;15.50;85.00;;;;;;4198072;28;20052;-59
2021/11/16 09:58:02;;;;;;;61.47;25.70;;;15.50;85.00;;;;;;4196278;28;20036;-59
2021/11/16 10:00:27;;;;;;;60.30;27.15;;;15.60;85.50;;;;;;4193839;28;20484;-59
2021/11/16 10:02:51;;;;;;;59.63;26.40;;;15.70;84.20;;;;;;4177501;28;20455;-59
2021/11/16 10:05:18;;;;;;;57.80;25.05;;;15.70;83.70;;;;;;4177411;28;20094;-59
2021/11/16 10:07:40;;;;;;;58.10;25.92;;;15.80;83.60;;;;;;4177193;28;20049;-59
2021/11/16 10:10:05;;;;;;;58.85;25.25;;;15.80;83.50;;;;;;4175869;28;20049;-58
2021/11/16 10:12:38;;;;;;;54.75;25.80;;;15.80;83.10;;;;;;4178013;28;20212;-59
2021/11/16 10:15:00;;;;;;;52.60;25.30;;;15.80;83.00;;;;;;4177215;28;20083;-59
2021/11/16 10:17:23;;;;;;;57.83;24.85;;;15.80;83.40;;;;;;4176975;28;20140;-59
2021/11/16 10:19:45;;;;;;;52.22;24.17;;;15.80;83.10;;;;;;4176980;28;20832;-58
2021/11/16 10:22:11;;;;;;;53.10;25.33;;;15.80;82.90;;;;;;4188233;28;20049;-58
2021/11/16 10:24:36;;;;;;;60.85;25.95;;;15.80;83.00;;;;;;4193709;28;20037;-59
2021/11/16 10:27:01;;;;;;;56.13;26.23;;;15.80;83.00;;;;;;4188027;28;20468;-59
2021/11/16 10:29:24;;;;;;;63.78;26.38;;;15.80;82.60;;;;;;4187994;28;20044;-59
2021/11/16 10:31:46;;;;;;;59.75;26.85;;;15.80;82.80;;;;;;4181808;28;20044;-58
2021/11/16 10:34:08;;;;;;;60.88;26.45;;;15.80;82.80;;;;;;4176641;28;20048;-58
2021/11/16 10:36:31;;;;;;;57.75;25.95;;;15.80;82.80;;;;;;4188219;28;20565;-59
2021/11/16 10:38:57;;;;;;;57.80;26.58;;;15.80;82.80;;;;;;4193792;28;20048;-58
2021/11/16 10:41:22;;;;;;;49.53;23.83;;;15.90;82.90;;;;;;4178091;28;20074;-59
2021/11/16 10:43:51;;;;;;;60.15;26.67;;;15.90;82.70;;;;;;4177200;28;20041;-59
2021/11/16 10:46:13;;;;;;;59.28;24.38;;;16.00;82.60;;;;;;4179211;28;20049;-59
2021/11/16 10:48:37;;;;;;;51.47;25.27;;;16.10;82.40;;;;;;4193078;28;20044;-58
2021/11/16 10:50:59;;;;;;;55.22;24.90;;;16.20;82.00;;;;;;4193509;28;20082;-59
2021/11/16 10:53:24;;;;;;;56.65;24.75;;;16.30;81.50;;;;;;4193648;28;20052;-58
2021/11/16 10:55:48;;;;;;;52.05;24.85;;;16.30;81.00;;;;;;4192513;28;20048;-59
2021/11/16 10:58:13;;;;;;;50.90;23.27;;;16.30;81.00;;;;;;4191836;28;20040;-59
2021/11/16 11:00:39;;;;;;;49.55;23.70;;;16.30;80.80;;;;;;4193105;28;20127;-59
2021/11/16 11:03:19;;;;;;;52.60;25.33;;;16.30;80.60;;;;;;4192433;28;20454;-59
2021/11/16 11:05:41;;;;;;;52.67;24.77;;;16.30;79.90;;;;;;4177065;28;20461;-59
2021/11/16 11:08:04;;;;;;;53.45;24.20;;;16.20;80.80;;;;;;4175486;28;20045;-59
2021/11/16 11:10:45;;;;;;;45.85;21.88;;;16.10;80.90;;;;;;4176134;28;20045;-58
2021/11/16 11:13:18;;;;;;;47.22;22.30;;;16.10;80.70;;;;;;4176809;28;20044;-59
2021/11/16 11:15:42;;;;;;;46.00;22.52;;;16.00;81.20;;;;;;4176217;28;20094;-59
2021/11/16 11:18:06;;;;;;;52.15;22.98;;;16.00;81.80;;;;;;4176178;28;20068;-59
2021/11/16 11:20:38;;;;;;;53.10;23.25;;;15.90;81.90;;;;;;4187222;28;20480;-59
2021/11/16 11:23:00;;;;;;;47.55;22.83;;;15.90;81.60;;;;;;4192457;28;20051;-59
2021/11/16 11:25:35;;;;;;;47.13;22.55;;;15.90;82.40;;;;;;4191935;28;20056;-60
2021/11/16 11:28:00;;;;;;;48.13;21.58;;;15.80;82.50;;;;;;4192489;28;20074;-59
2021/11/16 11:30:22;;;;;;;44.67;22.75;;;15.80;82.70;;;;;;4176495;28;20041;-59
2021/11/16 11:32:47;;;;;;;45.83;22.58;;;15.70;83.80;;;;;;4176375;28;20590;-59
2021/11/16 11:35:14;;;;;;;45.65;22.77;;;15.70;83.00;;;;;;4175884;28;20048;-59
2021/11/16 11:37:38;;;;;;;45.10;21.05;;;15.70;83.20;;;;;;4176315;28;20378;-57
2021/11/16 11:40:02;;;;;;;45.28;21.52;;;15.60;83.50;;;;;;4176346;28;20057;-58
2021/11/16 11:42:25;;;;;;;39.35;20.63;;;15.60;83.60;;;;;;4180242;28;20391;-58
2021/11/16 11:45:07;;;;;;;42.47;20.15;;;15.50;83.50;;;;;;4192852;28;20048;-58
2021/11/16 11:47:31;;;;;;;42.03;20.08;;;15.50;83.30;;;;;;4185457;28;20551;-58
2021/11/16 11:49:56;;;;;;;44.92;20.45;;;15.50;83.90;;;;;;4175861;28;20503;-57
2021/11/16 11:52:18;;;;;;;43.08;20.42;;;15.40;83.70;;;;;;4178453;28;20480;-58
2021/11/16 11:54:41;;;;;;;43.97;20.27;;;15.40;83.90;;;;;;4191580;28;20065;-57
2021/11/16 11:57:03;;;;;;;42.50;21.30;;;15.40;83.90;;;;;;4191416;28;20448;-58
2021/11/16 11:59:26;;;;;;;46.88;20.52;;;15.30;83.70;;;;;;4192569;28;20752;-57
2021/11/16 12:01:49;;;;;;;42.35;19.80;;;15.30;83.90;;;;;;4192566;28;20048;-58
2021/11/16 12:04:15;;;;;;;42.42;20.00;;;15.30;83.90;;;;;;4181261;28;20552;-58
2021/11/16 12:06:39;;;;;;;44.83;20.45;;;15.20;83.70;;;;;;4192285;28;20060;-58
2021/11/16 12:09:01;;;;;;;44.58;19.73;;;15.20;84.10;;;;;;4192477;28;20044;-57
2021/11/16 12:11:23;;;;;;;44.00;21.70;;;15.20;84.30;;;;;;4192239;28;20047;-58
2021/11/16 12:13:47;;;;;;;45.47;21.52;;;15.20;84.60;;;;;;4177484;28;20040;-57
2021/11/16 12:16:14;;;;;;;44.00;19.67;;;15.20;85.10;;;;;;4181774;28;20495;-58
2021/11/16 12:18:39;;;;;;;51.75;21.50;;;15.20;85.00;;;;;;4175601;28;20077;-59
2021/11/16 12:21:01;;;;;;;40.63;19.77;;;15.30;85.00;;;;;;4175118;28;20070;-58
2021/11/16 12:23:47;;;;;;;42.08;20.48;;;15.40;84.60;;;;;;4181102;28;20068;-58
2021/11/16 12:26:11;;;;;;;45.67;20.45;;;15.40;83.80;;;;;;4174815;28;20506;-58
2021/11/16 12:28:37;;;;;;;42.40;20.52;;;15.50;84.50;;;;;;4190383;28;20048;-58
2021/11/16 12:31:02;;;;;;;48.35;20.08;;;15.60;84.30;;;;;;4185030;28;20072;-58
2021/11/16 12:33:40;;;;;;;45.05;20.20;;;15.70;83.90;;;;;;4178943;28;20067;-64
2021/11/16 12:36:05;;;;;;;45.17;20.20;;;15.70;83.20;;;;;;4178535;28;20055;-59
2021/11/16 12:38:35;;;;;;;48.35;23.60;;;15.70;83.60;;;;;;4186137;28;20044;-60
2021/11/16 12:40:59;;;;;;;39.95;19.00;;;15.70;82.90;;;;;;4191442;28;20072;-60
2021/11/16 12:43:24;;;;;;;41.70;19.85;;;15.70;83.10;;;;;;4171640;28;20154;-59
2021/11/16 12:45:49;;;;;;;42.80;19.80;;;15.70;84.00;;;;;;4158669;28;20575;-59
2021/11/16 12:48:13;;;;;;;45.88;19.35;;;15.60;84.10;;;;;;4158844;28;20049;-60
2021/11/16 12:50:36;;;;;;;43.13;19.45;;;15.60;83.40;;;;;;4161963;28;20423;-59
2021/11/16 12:52:58;;;;;;;40.63;19.63;;;15.60;83.50;;;;;;4174035;28;20048;-59
2021/11/16 12:55:25;;;;;;;44.92;19.95;;;15.60;83.70;;;;;;4168191;28;20045;-59
2021/11/16 12:57:50;;;;;;;46.58;20.33;;;15.60;83.80;;;;;;4176952;28;20052;-59
2021/11/16 13:00:12;;;;;;;40.13;19.45;;;15.50;83.90;;;;;;4175472;28;20128;-59
2021/11/16 13:02:47;;;;;;;46.17;20.55;;;15.50;84.10;;;;;;4182432;28;20468;-60
2021/11/16 13:05:11;;;;;;;39.17;17.75;;;15.50;84.10;;;;;;4179290;28;20049;-59
2021/11/16 13:07:35;;;;;;;39.65;17.95;;;15.40;84.30;;;;;;4180234;28;20041;-58
2021/11/16 13:10:04;;;;;;;38.67;17.83;;;15.40;84.20;;;;;;4176471;28;20136;-59
2021/11/16 13:12:41;;;;;;;43.03;19.38;;;15.40;84.40;;;;;;4174558;28;20044;-68
2021/11/16 13:15:07;;;;;;;35.45;17.15;;;15.40;84.10;;;;;;4177816;28;20124;-59
2021/11/16 13:17:45;;;;;;;34.90;17.40;;;15.30;84.50;;;;;;4179988;28;20060;-60
2021/11/16 13:20:08;;;;;;;35.97;17.92;;;15.30;84.00;;;;;;4182874;28;20045;-58
2021/11/16 13:22:52;;;;;;;36.85;18.45;;;15.20;84.70;;;;;;4174219;28;20073;-58
2021/11/16 13:25:40;;;;;;;40.53;18.50;;;15.20;83.90;;;;;;4175876;28;20501;-58
2021/11/16 13:28:02;;;;;;;42.85;20.17;;;15.20;84.10;;;;;;4182847;28;20033;-58
2021/11/16 13:30:26;;;;;;;43.85;18.92;;;15.10;85.20;;;;;;4191789;28;20135;-60
2021/11/16 13:32:48;;;;;;;38.60;18.05;;;15.10;85.20;;;;;;4178152;28;20052;-57
2021/11/16 13:35:13;;;;;;;40.05;18.05;;;15.10;85.00;;;;;;4177616;28;20087;-59
2021/11/16 13:37:49;;;;;;;38.50;17.63;;;15.10;85.90;;;;;;4180278;28;20045;-58
2021/11/16 13:40:13;;;;;;;38.95;18.10;;;15.00;85.10;;;;;;4177968;28;20052;-58
2021/11/16 13:42:36;;;;;;;41.53;18.58;;;15.00;85.20;;;;;;4177726;28;20839;-58
2021/11/16 13:45:00;;;;;;;40.92;18.48;;;15.00;85.20;;;;;;4178575;28;20056;-59
2021/11/16 13:47:27;;;;;;;41.58;19.90;;;15.00;85.20;;;;;;4185960;28;20052;-58
2021/11/16 13:49:52;;;;;;;42.15;19.08;;;15.00;85.30;;;;;;4187983;28;20135;-58
2021/11/16 13:52:22;;;;;;;45.00;20.95;;;14.90;85.60;;;;;;4193023;28;20105;-58
2021/11/16 13:54:46;;;;;;;45.03;20.33;;;14.90;85.40;;;;;;4178198;28;20072;-58
2021/11/16 13:57:14;;;;;;;45.13;19.13;;;14.90;85.50;;;;;;4178129;28;20242;-58
2021/11/16 13:59:38;;;;;;;46.30;19.92;;;14.90;85.40;;;;;;4177772;28;20118;-59
2021/11/16 14:02:01;;;;;;;44.10;19.45;;;14.80;85.30;;;;;;4177729;28;20049;-58
2021/11/16 14:04:25;;;;;;;46.08;19.88;;;14.80;85.80;;;;;;4178245;28;20056;-60
2021/11/16 14:06:47;;;;;;;45.75;20.73;;;14.90;86.70;;;;;;4179251;28;20142;-60
2021/11/16 14:09:21;;;;;;;46.40;20.95;;;15.00;86.70;;;;;;4194259;28;20139;-60
2021/11/16 14:11:55;;;;;;;56.25;22.38;;;15.10;86.10;;;;;;4194029;28;20403;-59
2021/11/16 14:14:18;;;;;;;48.78;20.42;;;15.20;85.70;;;;;;4193686;28;20060;-59
2021/11/16 14:16:40;;;;;;;42.95;20.35;;;15.20;85.70;;;;;;4193452;28;20040;-60
2021/11/16 14:19:04;;;;;;;44.47;20.35;;;15.30;85.50;;;;;;4185575;28;20053;-59
2021/11/16 14:21:28;;;;;;;43.60;18.67;;;15.30;85.20;;;;;;4177020;28;20073;-61
2021/11/16 14:23:52;;;;;;;41.72;19.25;;;15.30;85.00;;;;;;4177053;28;20139;-61
2021/11/16 14:26:34;;;;;;;44.38;20.27;;;15.30;84.90;;;;;;4174540;28;20135;-63
2021/11/16 14:28:58;;;;;;;39.65;18.20;;;15.30;85.10;;;;;;4177295;28;20450;-59
2021/11/16 14:31:23;;;;;;;35.70;16.17;;;15.30;85.00;;;;;;4183789;28;20048;-58
2021/11/16 14:33:47;;;;;;;36.20;15.02;;;15.30;85.00;;;;;;4182682;28;20125;-60
2021/11/16 14:36:10;;;;;;;40.67;17.17;;;15.30;85.10;;;;;;4177162;28;20053;-59
2021/11/16 14:38:35;;;;;;;35.65;15.93;;;15.30;85.20;;;;;;4176644;28;20045;-58
2021/11/16 14:40:59;;;;;;;37.22;17.02;;;15.20;85.10;;;;;;4177047;28;20492;-58
2021/11/16 14:43:22;;;;;;;39.17;17.50;;;15.20;85.20;;;;;;4184367;28;20052;-58
2021/11/16 14:45:45;;;;;;;39.97;17.27;;;15.20;85.20;;;;;;4192886;28;20041;-57
2021/11/16 14:48:16;;;;;;;42.67;17.88;;;15.10;85.20;;;;;;4193666;28;20040;-57
2021/11/16 14:50:40;;;;;;;42.10;18.08;;;15.10;85.30;;;;;;4189588;28;20519;-60
2021/11/16 14:53:11;;;;;;;40.58;18.15;;;15.10;85.60;;;;;;4175862;28;20485;-61
2021/11/16 14:55:35;;;;;;;38.63;16.02;;;15.10;85.80;;;;;;4176569;28;20122;-62
2021/11/16 14:57:58;;;;;;;35.67;16.30;;;15.10;85.80;;;;;;4186680;28;20046;-56
2021/11/16 15:00:24;;;;;;;33.42;16.23;;;15.20;85.60;;;;;;4160807;28;20143;-58
2021/11/16 15:02:51;;;;;;;31.92;14.70;;;15.20;85.20;;;;;;4176199;28;20072;-57
2021/11/16 15:05:16;;;;;;;37.38;15.85;;;15.30;85.20;;;;;;4176638;28;20510;-59
2021/11/16 15:07:38;;;;;;;35.05;14.73;;;15.30;85.00;;;;;;4189463;28;20412;-58
2021/11/16 15:10:04;;;;;;;27.48;13.50;;;15.30;84.80;;;;;;4191282;28;20471;-58
2021/11/16 15:12:29;;;;;;;28.33;13.82;;;15.30;84.80;;;;;;4171003;28;20049;-58
2021/11/16 15:14:54;;;;;;;28.70;13.57;;;15.40;84.60;;;;;;4176267;28;20510;-59
2021/11/16 15:17:17;;;;;;;29.88;12.70;;;15.30;84.60;;;;;;4185348;28;20048;-58
2021/11/16 15:19:56;;;;;;;31.27;13.90;;;15.40;84.90;;;;;;4181775;28;20051;-58
2021/11/16 15:22:30;;;;;;;32.33;14.27;;;15.40;84.40;;;;;;4175773;28;20064;-58
2021/11/16 15:25:06;;;;;;;29.35;13.23;;;15.40;84.50;;;;;;4177111;28;20045;-56
2021/11/16 15:27:34;;;;;;;27.13;13.60;;;15.50;84.40;;;;;;4175766;28;20488;-57
2021/11/16 15:30:14;;;;;;;32.25;13.88;;;15.50;84.20;;;;;;4187877;28;20055;-55
2021/11/16 15:32:37;;;;;;;30.92;14.15;;;15.50;83.90;;;;;;4192431;28;20423;-57
2021/11/16 15:35:00;;;;;;;29.27;13.90;;;15.50;84.20;;;;;;4186585;28;20052;-57
2021/11/16 15:37:28;;;;;;;29.63;14.38;;;15.50;84.00;;;;;;4176215;28;20060;-57
2021/11/16 15:40:06;;;;;;;27.02;14.15;;;15.60;84.00;;;;;;4175598;28;20057;-57
2021/11/16 15:42:28;;;;;;;36.42;14.43;;;15.80;83.60;;;;;;4175336;28;20056;-58
2021/11/16 15:45:01;;;;;;;33.97;15.38;;;16.20;82.60;;;;;;4180472;28;20048;-59
2021/11/16 15:47:34;;;;;;;30.50;14.02;;;16.70;80.90;;;;;;4190941;28;20500;-60
2021/11/16 15:50:11;;;;;;;31.42;14.80;;;17.20;79.20;;;;;;4187183;28;20053;-60
2021/11/16 15:53:07;;;;;;;26.05;14.02;;;17.90;76.50;;;;;;4175161;28;20052;-57
2021/11/16 15:58:14;;;;;;;30.92;14.85;;;19.20;70.30;;;;;;4188978;28;20050;-61
2021/11/16 16:00:38;;;;;;;27.50;13.82;;;19.70;67.90;;;;;;4175282;28;20412;-60
2021/11/16 16:03:09;;;;;;;29.80;14.85;;;20.00;66.20;;;;;;4181177;28;20550;-60
2021/11/16 16:05:31;;;;;;;29.83;15.80;;;20.20;65.00;;;;;;4191602;28;20064;-59
2021/11/16 16:07:58;;;;;;;30.45;14.73;;;20.30;64.60;;;;;;4191155;28;20502;-59
2021/11/16 16:10:28;;;;;;;29.52;14.32;;;20.20;64.30;;;;;;4175521;28;20060;-59
2021/11/16 16:12:50;;;;;;;29.95;14.68;;;20.10;64.60;;;;;;4174929;28;20476;-58
2021/11/16 16:15:27;;;;;;;26.27;14.35;;;19.90;65.30;;;;;;4175015;28;20041;-60
2021/11/16 16:17:50;;;;;;;29.23;14.95;;;19.60;65.60;;;;;;4173542;28;20072;-59
2021/11/16 16:20:14;;;;;;;27.42;14.75;;;19.40;67.10;;;;;;4178551;28;20037;-60
2021/11/16 16:22:42;;;;;;;35.35;14.20;;;19.20;68.10;;;;;;4184980;28;20395;-60
2021/11/16 16:25:06;;;;;;;23.95;13.05;;;19.10;68.80;;;;;;4190885;28;20380;-59
2021/11/16 16:27:28;;;;;;;25.48;13.27;;;19.10;69.20;;;;;;4190565;28;20072;-60
2021/11/16 16:29:50;;;;;;;24.52;12.68;;;19.10;69.10;;;;;;4186810;28;20084;-60
2021/11/16 16:32:12;;;;;;;24.95;12.65;;;19.10;69.00;;;;;;4176754;28;20080;-59
2021/11/16 16:34:36;;;;;;;25.15;13.07;;;19.10;69.00;;;;;;4191401;28;20048;-59
2021/11/16 16:36:59;;;;;;;24.23;13.63;;;19.10;69.90;;;;;;4191802;28;20349;-60
2021/11/16 16:39:21;;;;;;;22.27;12.13;;;19.20;69.00;;;;;;4189597;28;20056;-61
2021/11/16 16:41:46;;;;;;;22.65;12.15;;;19.20;68.90;;;;;;4175007;28;20709;-61
2021/11/16 16:44:12;;;;;;;22.05;10.98;;;19.20;68.70;;;;;;4175738;28;20378;-61
2021/11/16 16:46:39;;;;;;;20.90;10.10;;;19.20;68.50;;;;;;4191710;28;20422;-61
2021/11/16 16:49:02;;;;;;;21.65;11.50;;;19.20;68.70;;;;;;4176520;28;20409;-59
2021/11/16 16:51:27;;;;;;;20.50;9.98;;;19.20;68.80;;;;;;4174996;28;20049;-59
2021/11/16 16:53:50;;;;;;;18.70;10.10;;;19.30;69.50;;;;;;4190384;28;20079;-58
2021/11/16 16:56:15;;;;;;;20.63;10.70;;;19.30;68.60;;;;;;4191576;28;20122;-58
2021/11/16 16:58:38;;;;;;;19.88;10.35;;;19.30;68.30;;;;;;4179969;28;20377;-59
2021/11/16 17:01:00;;;;;;;18.00;10.38;;;19.30;68.40;;;;;;4181781;28;20140;-58
2021/11/16 17:03:22;;;;;;;20.23;10.70;;;19.30;68.30;;;;;;4191590;28;20068;-57
2021/11/16 17:05:45;;;;;;;16.63;9.82;;;19.20;68.50;;;;;;4186775;28;20051;-61
2021/11/16 17:08:08;;;;;;;21.75;11.05;;;19.10;68.90;;;;;;4173983;28;20045;-59
2021/11/16 17:10:31;;;;;;;17.83;10.43;;;19.10;69.30;;;;;;4180602;28;20075;-61
2021/11/16 17:12:53;;;;;;;22.90;11.05;;;19.00;69.60;;;;;;4194279;28;20048;-59
2021/11/16 17:15:16;;;;;;;21.42;11.55;;;19.10;69.50;;;;;;4194224;28;20048;-60
2021/11/16 17:17:40;;;;;;;21.95;11.68;;;19.00;69.60;;;;;;4178647;28;20045;-60
2021/11/16 17:20:04;;;;;;;24.17;11.52;;;19.10;69.70;;;;;;4177780;28;20053;-59
2021/11/16 17:22:27;;;;;;;21.50;12.02;;;19.10;69.60;;;;;;4178064;28;20485;-60
2021/11/16 17:24:51;;;;;;;19.73;11.35;;;19.10;69.50;;;;;;4190505;28;20048;-60
2021/11/16 17:27:17;;;;;;;26.70;12.73;;;19.10;69.40;;;;;;4194614;28;20079;-60
2021/11/16 17:29:40;;;;;;;23.58;12.70;;;19.10;69.20;;;;;;4189763;28;20052;-58
2021/11/16 17:32:02;;;;;;;26.60;13.18;;;19.10;69.60;;;;;;4177972;28;20051;-59
2021/11/16 17:34:24;;;;;;;25.20;12.73;;;19.00;69.80;;;;;;4186743;28;20835;-58
2021/11/16 17:36:47;;;;;;;25.05;13.48;;;19.00;70.20;;;;;;4194045;28;20098;-57
2021/11/16 17:39:09;;;;;;;22.45;12.43;;;19.00;70.00;;;;;;4193460;28;20135;-59
2021/11/16 17:41:34;;;;;;;22.60;12.95;;;19.10;69.70;;;;;;4187559;28;20049;-60
2021/11/16 17:43:56;;;;;;;22.10;12.82;;;19.10;69.50;;;;;;4177227;28;20045;-61
2021/11/16 17:46:19;;;;;;;29.70;14.63;;;19.10;69.30;;;;;;4177249;28;20076;-59
2021/11/16 17:48:41;;;;;;;25.25;13.50;;;19.10;69.30;;;;;;4178927;28;20491;-56
2021/11/16 17:51:05;;;;;;;24.67;12.05;;;19.00;69.70;;;;;;4177626;28;20124;-60
2021/11/16 17:53:27;;;;;;;23.55;12.82;;;19.00;70.00;;;;;;4178056;28;20041;-59
2021/11/16 17:55:50;;;;;;;25.70;13.18;;;18.90;70.20;;;;;;4191044;28;20419;-59
2021/11/16 17:58:13;;;;;;;25.85;12.70;;;18.90;70.30;;;;;;4193913;28;20040;-60
2021/11/16 18:00:37;;;;;;;26.10;13.35;;;18.90;70.30;;;;;;4177479;28;20041;-61
2021/11/16 18:03:00;;;;;;;24.92;13.10;;;18.90;70.30;;;;;;4178328;28;20052;-60
2021/11/16 18:05:46;;;;;;;27.10;13.55;;;18.90;70.20;;;;;;4177591;28;20045;-60
2021/11/16 18:08:09;;;;;;;24.25;12.80;;;19.00;70.40;;;;;;4177426;28;20055;-60
2021/11/16 18:10:33;;;;;;;21.42;11.77;;;19.00;70.40;;;;;;4177319;28;20385;-60
2021/11/16 18:12:55;;;;;;;26.90;12.75;;;19.00;70.20;;;;;;4180488;28;20044;-60
2021/11/16 18:15:18;;;;;;;23.33;12.18;;;19.00;69.90;;;;;;4176802;28;20041;-60
2021/11/16 18:17:41;;;;;;;22.58;11.68;;;19.00;69.90;;;;;;4185306;28;20072;-60
2021/11/16 18:20:03;;;;;;;19.88;10.98;;;18.90;70.00;;;;;;4193837;28;20063;-60
2021/11/16 18:22:26;;;;;;;25.23;11.63;;;18.80;70.40;;;;;;4177096;28;20053;-61
2021/11/16 18:24:48;;;;;;;24.98;12.15;;;18.70;70.70;;;;;;4176901;28;20053;-62
2021/11/16 18:27:13;;;;;;;24.13;11.65;;;18.60;71.10;;;;;;4184678;28;20052;-61
2021/11/16 18:29:35;;;;;;;21.67;11.27;;;18.50;71.40;;;;;;4186370;28;20052;-62
2021/11/16 18:31:59;;;;;;;25.52;11.98;;;18.40;72.10;;;;;;4180187;28;20057;-60
2021/11/16 18:34:21;;;;;;;23.02;11.77;;;18.20;72.40;;;;;;4176947;28;20045;-60
2021/11/16 18:36:46;;;;;;;25.58;12.07;;;18.00;73.00;;;;;;4180537;28;20052;-58
2021/11/16 18:39:13;;;;;;;25.10;12.23;;;17.90;73.50;;;;;;4193118;28;20052;-58
2021/11/16 18:41:41;;;;;;;23.08;11.38;;;17.80;74.20;;;;;;4190615;28;20106;-60
2021/11/16 18:44:08;;;;;;;22.08;11.52;;;17.70;74.60;;;;;;4175586;28;20049;-60
2021/11/16 18:46:33;;;;;;;22.95;11.63;;;17.60;75.20;;;;;;4175310;28;20053;-60
2021/11/16 18:49:00;;;;;;;22.73;11.63;;;17.50;75.80;;;;;;4175733;28;20492;-60
2021/11/16 18:51:22;;;;;;;22.27;10.43;;;17.40;75.90;;;;;;4175683;28;20061;-60
2021/11/16 18:53:44;;;;;;;23.70;11.65;;;17.30;76.30;;;;;;4175891;28;20041;-60
2021/11/16 18:56:07;;;;;;;25.80;12.80;;;17.20;76.60;;;;;;4175521;28;20041;-61
2021/11/16 18:58:29;;;;;;;22.42;11.48;;;17.10;76.90;;;;;;4174867;28;20052;-59
2021/11/16 19:00:52;;;;;;;22.27;11.70;;;17.10;77.10;;;;;;4189986;28;20044;-59
2021/11/16 19:03:15;;;;;;;24.00;11.05;;;16.90;77.60;;;;;;4182997;28;20045;-60
2021/11/16 19:05:38;;;;;;;22.95;11.18;;;16.90;78.00;;;;;;4176155;28;20067;-60
2021/11/16 19:08:01;;;;;;;22.33;11.52;;;16.90;78.50;;;;;;4185513;28;20040;-60
2021/11/16 19:10:23;;;;;;;21.27;11.20;;;16.80;79.00;;;;;;4192821;28;20052;-59
2021/11/16 19:12:46;;;;;;;28.83;11.95;;;16.80;79.40;;;;;;4190148;28;20040;-60
2021/11/16 19:15:08;;;;;;;23.25;11.75;;;16.70;79.60;;;;;;4192217;28;20411;-58
2021/11/16 19:17:31;;;;;;;21.63;11.25;;;16.60;79.90;;;;;;4187106;28;20060;-58
2021/11/16 19:20:16;;;;;;;18.85;10.25;;;16.60;81.10;;;;;;4176502;28;20068;-58
2021/11/16 19:22:41;;;;;;;23.15;11.60;;;16.50;80.50;;;;;;4176178;28;20091;-58
2021/11/16 19:25:11;;;;;;;25.20;12.85;;;16.50;80.70;;;;;;4175973;28;20049;-58
2021/11/16 19:27:40;;;;;;;20.40;11.60;;;16.40;81.10;;;;;;4179508;28;20132;-59
2021/11/16 19:30:02;;;;;;;22.13;11.80;;;16.40;81.20;;;;;;4191597;28;20784;-57
2021/11/16 19:32:33;;;;;;;22.30;11.77;;;16.30;81.50;;;;;;4187692;28;20102;-57
2021/11/16 19:34:57;;;;;;;22.55;11.98;;;16.30;81.80;;;;;;4175772;28;20412;-57
2021/11/16 19:37:22;;;;;;;23.30;12.07;;;16.20;81.90;;;;;;4175063;28;20069;-57
2021/11/16 19:39:54;;;;;;;24.50;12.52;;;16.20;81.90;;;;;;4173381;28;20053;-60
2021/11/16 19:42:16;;;;;;;20.98;11.38;;;16.20;82.00;;;;;;4174528;28;20049;-60
2021/11/16 19:44:38;;;;;;;26.10;12.80;;;16.20;82.30;;;;;;4174300;28;20156;-60
2021/11/16 19:47:00;;;;;;;20.00;11.18;;;16.10;82.30;;;;;;4172705;28;20052;-60
2021/11/16 19:49:23;;;;;;;23.48;11.77;;;16.10;82.30;;;;;;4182385;28;20471;-60
2021/11/16 19:51:45;;;;;;;25.48;12.48;;;16.00;82.30;;;;;;4190433;28;20056;-60
2021/11/16 19:54:08;;;;;;;25.42;12.02;;;16.00;82.30;;;;;;4191626;28;20044;-60
2021/11/16 19:56:32;;;;;;;23.33;12.30;;;16.00;82.40;;;;;;4190000;28;20064;-58
2021/11/16 19:58:56;;;;;;;27.88;12.55;;;16.00;82.20;;;;;;4188234;28;20045;-57
2021/11/16 20:01:22;;;;;;;25.30;12.82;;;15.90;82.30;;;;;;4191553;28;20423;-59
2021/11/16 20:03:44;;;;;;;22.17;11.95;;;15.90;82.40;;;;;;4191883;28;20518;-58
2021/11/16 20:06:06;;;;;;;19.75;11.50;;;15.90;82.30;;;;;;4191765;28;20052;-58
2021/11/16 20:08:29;;;;;;;22.13;11.77;;;15.80;82.20;;;;;;4187135;28;20570;-58
2021/11/16 20:10:53;;;;;;;20.45;10.80;;;15.80;82.20;;;;;;4191286;28;20045;-57
2021/11/16 20:13:17;;;;;;;24.15;12.60;;;15.80;82.30;;;;;;4191327;28;20445;-57
2021/11/16 20:15:39;;;;;;;28.38;14.32;;;15.80;82.40;;;;;;4187804;28;20488;-57
2021/11/16 20:18:01;;;;;;;28.75;13.70;;;15.80;82.70;;;;;;4186165;28;20101;-59
2021/11/16 20:20:26;;;;;;;23.20;11.88;;;15.70;82.50;;;;;;4190255;28;20059;-59
2021/11/16 20:22:48;;;;;;;24.33;11.90;;;15.70;82.50;;;;;;4190768;28;20048;-59
2021/11/16 20:25:15;;;;;;;22.20;11.75;;;15.70;82.70;;;;;;4191703;28;20049;-60
2021/11/16 20:27:39;;;;;;;22.85;12.00;;;15.70;82.80;;;;;;4185634;28;20432;-60
2021/11/16 20:30:06;;;;;;;20.50;11.10;;;15.60;83.00;;;;;;4191873;28;20055;-59
2021/11/16 20:32:32;;;;;;;23.00;11.35;;;15.60;82.70;;;;;;4191124;28;20044;-59
2021/11/16 20:34:59;;;;;;;22.00;11.65;;;15.60;82.70;;;;;;4192094;28;20048;-59
2021/11/16 20:37:23;;;;;;;21.90;12.05;;;15.60;82.50;;;;;;4187969;28;20060;-58
2021/11/16 20:39:49;;;;;;;24.90;12.73;;;15.50;82.50;;;;;;4191601;28;20052;-59
2021/11/16 20:42:32;;;;;;;24.02;11.27;;;15.50;82.80;;;;;;4187881;28;20049;-59
2021/11/16 20:45:15;;;;;;;25.42;11.43;;;15.50;82.70;;;;;;4191472;28;20499;-59
2021/11/16 20:59:12;;;;;;;18.83;10.93;;;15.40;83.00;;;;;;4189571;28;20040;-59
2021/11/16 21:01:14;;;;;;;24.75;12.63;;;15.30;83.30;;;;;;4191626;28;20148;-59
2021/11/16 21:03:38;;;;;;;23.13;12.25;;;15.30;83.60;;;;;;4184949;28;20135;-58
2021/11/16 21:06:00;;;;;;;27.25;13.43;;;15.30;83.60;;;;;;4177891;28;20135;-58
2021/11/16 21:08:23;;;;;;;24.63;12.98;;;15.30;83.60;;;;;;4174784;28;20436;-60
2021/11/16 21:10:45;;;;;;;28.77;13.00;;;15.30;83.70;;;;;;4175054;28;20052;-59
2021/11/16 21:13:07;;;;;;;25.13;12.50;;;15.30;83.70;;;;;;4174782;28;20465;-58
2021/11/16 21:15:29;;;;;;;22.92;11.90;;;15.20;83.50;;;;;;4179963;28;20131;-58